sensor_id;sensor_type;location;lat;lon;timestamp;pressure;altitude;pressure_sealevel;temperature;humidity
22047;BME280;11187;49.412;20.956;2022-07-30T00:01:53;95177.94;;;17.64;100.00
22047;BME280;11187;49.412;20.956;2022-07-30T00:04:29;95183.19;;;17.62;100.00
22047;BME280;11187;49.412;20.956;2022-07-30T00:07:23;95183.25;;;17.61;100.00
22047;BME280;11187;49.412;20.956;2022-07-30T00:09:56;95184.91;;;17.62;100.00
22047;BME280;11187;49.412;20.956;2022-07-30T00:12:52;95186.66;;;17.61;100.00
22047;BME280;11187;49.412;20.956;2022-07-30T00:15:46;95186.72;;;17.60;100.00
22047;BME280;11187;49.412;20.956;2022-07-30T00:18:19;95184.22;;;17.58;100.00
22047;BME280;11187;49.412;20.956;2022-07-30T00:21:06;95173.88;;;17.58;100.00
22047;BME280;11187;49.412;20.956;2022-07-30T00:23:59;95161.81;;;17.57;100.00
22047;BME280;11187;49.412;20.956;2022-07-30T00:26:49;95161.81;;;17.57;100.00
22047;BME280;11187;49.412;20.956;2022-07-30T00:29:24;95158.34;;;17.58;100.00
22047;BME280;11187;49.412;20.956;2022-07-30T00:32:15;95155.81;;;17.57;100.00
22047;BME280;11187;49.412;20.956;2022-07-30T00:34:51;95166.22;;;17.55;100.00
22047;BME280;11187;49.412;20.956;2022-07-30T00:37:47;95161.00;;;17.57;100.00
22047;BME280;11187;49.412;20.956;2022-07-30T00:40:21;95153.22;;;17.57;100.00
22047;BME280;11187;49.412;20.956;2022-07-30T00:43:17;95149.81;;;17.56;100.00
22047;BME280;11187;49.412;20.956;2022-07-30T00:45:50;95139.44;;;17.56;100.00
22047;BME280;11187;49.412;20.956;2022-07-30T00:48:37;95124.81;;;17.55;100.00
22047;BME280;11187;49.412;20.956;2022-07-30T00:51:11;95118.81;;;17.54;100.00
22047;BME280;11187;49.412;20.956;2022-07-30T00:54:04;95111.09;;;17.53;100.00
22047;BME280;11187;49.412;20.956;2022-07-30T00:56:38;95103.31;;;17.53;100.00
22047;BME280;11187;49.412;20.956;2022-07-30T00:59:24;95089.56;;;17.52;100.00
22047;BME280;11187;49.412;20.956;2022-07-30T01:01:59;95088.72;;;17.52;100.00
22047;BME280;11187;49.412;20.956;2022-07-30T01:04:46;95085.31;;;17.51;100.00
22047;BME280;11187;49.412;20.956;2022-07-30T01:07:19;95077.53;;;17.51;100.00
22047;BME280;11187;49.412;20.956;2022-07-30T01:10:14;95071.66;;;17.48;100.00
22047;BME280;11187;49.412;20.956;2022-07-30T01:12:47;95066.47;;;17.48;100.00
22047;BME280;11187;49.412;20.956;2022-07-30T01:15:42;95057.03;;;17.47;100.00
22047;BME280;11187;49.412;20.956;2022-07-30T01:18:16;95054.47;;;17.47;100.00
22047;BME280;11187;49.412;20.956;2022-07-30T01:21:11;95047.69;;;17.44;100.00
22047;BME280;11187;49.412;20.956;2022-07-30T01:23:49;95046.75;;;17.45;100.00
22047;BME280;11187;49.412;20.956;2022-07-30T01:26:38;95051.94;;;17.45;100.00
22047;BME280;11187;49.412;20.956;2022-07-30T01:29:37;95053.69;;;17.45;100.00
22047;BME280;11187;49.412;20.956;2022-07-30T01:32:12;95042.56;;;17.43;100.00
22047;BME280;11187;49.412;20.956;2022-07-30T01:35:00;95035.63;;;17.43;100.00
22047;BME280;11187;49.412;20.956;2022-07-30T01:37:34;95033.03;;;17.43;100.00
22047;BME280;11187;49.412;20.956;2022-07-30T01:40:29;95021.84;;;17.43;100.00
22047;BME280;11187;49.412;20.956;2022-07-30T01:43:24;95019.28;;;17.43;100.00
22047;BME280;11187;49.412;20.956;2022-07-30T01:46:01;95018.34;;;17.44;100.00
22047;BME280;11187;49.412;20.956;2022-07-30T01:48:56;95020.94;;;17.44;100.00
22047;BME280;11187;49.412;20.956;2022-07-30T01:51:32;95007.94;;;17.45;100.00
22047;BME280;11187;49.412;20.956;2022-07-30T01:54:30;95009.69;;;17.45;100.00
22047;BME280;11187;49.412;20.956;2022-07-30T01:57:05;95010.56;;;17.44;100.00
22047;BME280;11187;49.412;20.956;2022-07-30T02:00:03;95014.88;;;17.45;100.00
22047;BME280;11187;49.412;20.956;2022-07-30T02:02:40;95009.75;;;17.43;100.00
22047;BME280;11187;49.412;20.956;2022-07-30T02:05:36;95008.84;;;17.44;100.00
22047;BME280;11187;49.412;20.956;2022-07-30T02:08:40;95008.00;;;17.44;100.00
22047;BME280;11187;49.412;20.956;2022-07-30T02:11:42;95014.88;;;17.45;100.00
22047;BME280;11187;49.412;20.956;2022-07-30T02:14:42;95008.00;;;17.44;100.00
22047;BME280;11187;49.412;20.956;2022-07-30T02:17:37;95001.97;;;17.43;100.00
22047;BME280;11187;49.412;20.956;2022-07-30T02:20:13;95001.97;;;17.43;100.00
22047;BME280;11187;49.412;20.956;2022-07-30T02:23:17;94991.69;;;17.42;100.00
22047;BME280;11187;49.412;20.956;2022-07-30T02:25:52;94988.28;;;17.41;100.00
22047;BME280;11187;49.412;20.956;2022-07-30T02:28:41;94983.09;;;17.41;100.00
22047;BME280;11187;49.412;20.956;2022-07-30T02:31:19;94984.03;;;17.40;100.00
22047;BME280;11187;49.412;20.956;2022-07-30T02:34:07;94981.56;;;17.37;100.00
22047;BME280;11187;49.412;20.956;2022-07-30T02:36:42;94967.78;;;17.37;100.00
22047;BME280;11187;49.412;20.956;2022-07-30T02:39:40;94963.59;;;17.34;100.00
22047;BME280;11187;49.412;20.956;2022-07-30T02:42:37;94972.34;;;17.31;100.00
22047;BME280;11187;49.412;20.956;2022-07-30T02:45:34;94969.81;;;17.30;100.00
22047;BME280;11187;49.412;20.956;2022-07-30T02:48:09;94968.09;;;17.30;100.00
22047;BME280;11187;49.412;20.956;2022-07-30T02:51:16;94975.88;;;17.30;100.00
22047;BME280;11187;49.412;20.956;2022-07-30T02:54:13;94969.00;;;17.29;100.00
22047;BME280;11187;49.412;20.956;2022-07-30T02:56:48;94958.66;;;17.29;100.00
22047;BME280;11187;49.412;20.956;2022-07-30T02:59:39;94954.47;;;17.27;100.00
22047;BME280;11187;49.412;20.956;2022-07-30T03:02:13;94950.19;;;17.26;100.00
22047;BME280;11187;49.412;20.956;2022-07-30T03:05:08;94948.50;;;17.25;100.00
22047;BME280;11187;49.412;20.956;2022-07-30T03:07:44;94944.25;;;17.24;100.00
22047;BME280;11187;49.412;20.956;2022-07-30T03:10:32;94945.16;;;17.23;100.00
22047;BME280;11187;49.412;20.956;2022-07-30T03:13:06;94946.09;;;17.22;100.00
22047;BME280;11187;49.412;20.956;2022-07-30T03:15:57;94946.09;;;17.22;100.00
22047;BME280;11187;49.412;20.956;2022-07-30T03:18:33;94935.78;;;17.20;100.00
22047;BME280;11187;49.412;20.956;2022-07-30T03:21:23;94935.72;;;17.22;100.00
22047;BME280;11187;49.412;20.956;2022-07-30T03:23:59;94933.97;;;17.22;100.00
22047;BME280;11187;49.412;20.956;2022-07-30T03:26:48;94935.63;;;17.23;100.00
22047;BME280;11187;49.412;20.956;2022-07-30T03:29:25;94930.47;;;17.23;100.00
22047;BME280;11187;49.412;20.956;2022-07-30T03:32:12;94934.75;;;17.24;100.00
22047;BME280;11187;49.412;20.956;2022-07-30T03:34:52;94929.56;;;17.24;100.00
22047;BME280;11187;49.412;20.956;2022-07-30T03:37:47;94927.81;;;17.25;100.00
22047;BME280;11187;49.412;20.956;2022-07-30T03:40:21;94929.56;;;17.24;100.00
22047;BME280;11187;49.412;20.956;2022-07-30T03:43:16;94941.59;;;17.25;100.00
22047;BME280;11187;49.412;20.956;2022-07-30T03:46:12;94941.53;;;17.27;100.00
22047;BME280;11187;49.412;20.956;2022-07-30T03:48:46;94947.53;;;17.27;100.00
22047;BME280;11187;49.412;20.956;2022-07-30T03:51:33;94952.63;;;17.29;100.00
22047;BME280;11187;49.412;20.956;2022-07-30T03:54:07;94948.28;;;17.29;100.00
22047;BME280;11187;49.412;20.956;2022-07-30T03:57:03;94956.00;;;17.31;100.00
22047;BME280;11187;49.412;20.956;2022-07-30T03:59:59;94950.81;;;17.31;100.00
22047;BME280;11187;49.412;20.956;2022-07-30T04:02:43;94956.00;;;17.31;100.00
22047;BME280;11187;49.412;20.956;2022-07-30T04:05:29;94957.66;;;17.32;100.00
22047;BME280;11187;49.412;20.956;2022-07-30T04:08:07;94966.25;;;17.32;100.00
22047;BME280;11187;49.412;20.956;2022-07-30T04:10:55;94953.41;;;17.31;100.00
22047;BME280;11187;49.412;20.956;2022-07-30T04:13:31;94954.25;;;17.31;100.00
22047;BME280;11187;49.412;20.956;2022-07-30T04:16:18;94956.00;;;17.31;100.00
22047;BME280;11187;49.412;20.956;2022-07-30T04:19:19;94961.22;;;17.29;100.00
22047;BME280;11187;49.412;20.956;2022-07-30T04:22:01;94961.22;;;17.29;100.00
22047;BME280;11187;49.412;20.956;2022-07-30T04:24:42;94962.16;;;17.28;100.00
22047;BME280;11187;49.412;20.956;2022-07-30T04:27:38;94968.22;;;17.27;100.00
22047;BME280;11187;49.412;20.956;2022-07-30T04:30:42;94967.47;;;17.25;100.00
22047;BME280;11187;49.412;20.956;2022-07-30T04:33:16;94959.84;;;17.22;100.00
22047;BME280;11187;49.412;20.956;2022-07-30T04:36:09;94973.63;;;17.23;100.00
22047;BME280;11187;49.412;20.956;2022-07-30T04:39:03;94965.78;;;17.24;100.00
22047;BME280;11187;49.412;20.956;2022-07-30T04:41:37;94959.69;;;17.25;100.00
22047;BME280;11187;49.412;20.956;2022-07-30T04:44:28;94950.28;;;17.24;100.00
22047;BME280;11187;49.412;20.956;2022-07-30T04:47:02;94958.81;;;17.26;100.00
22047;BME280;11187;49.412;20.956;2022-07-30T04:49:49;94952.69;;;17.27;100.00
22047;BME280;11187;49.412;20.956;2022-07-30T04:52:30;94958.66;;;17.29;100.00
22047;BME280;11187;49.412;20.956;2022-07-30T04:55:18;94955.16;;;17.30;100.00
22047;BME280;11187;49.412;20.956;2022-07-30T04:57:53;94950.81;;;17.31;100.00
22047;BME280;11187;49.412;20.956;2022-07-30T05:00:40;94956.81;;;17.31;100.00
22047;BME280;11187;49.412;20.956;2022-07-30T05:03:14;94951.66;;;17.31;100.00
22047;BME280;11187;49.412;20.956;2022-07-30T05:06:10;94952.47;;;17.32;100.00
22047;BME280;11187;49.412;20.956;2022-07-30T05:09:06;94958.44;;;17.34;100.00
22047;BME280;11187;49.412;20.956;2022-07-30T05:11:39;94961.00;;;17.34;100.00
22047;BME280;11187;49.412;20.956;2022-07-30T05:14:26;94961.00;;;17.34;100.00
22047;BME280;11187;49.412;20.956;2022-07-30T05:17:00;94962.63;;;17.37;100.00
22047;BME280;11187;49.412;20.956;2022-07-30T05:19:46;94968.72;;;17.36;100.00
22047;BME280;11187;49.412;20.956;2022-07-30T05:22:19;94975.50;;;17.38;100.00
22047;BME280;11187;49.412;20.956;2022-07-30T05:25:08;94971.09;;;17.40;100.00
22047;BME280;11187;49.412;20.956;2022-07-30T05:27:55;94978.69;;;17.43;100.00
22047;BME280;11187;49.412;20.956;2022-07-30T05:30:49;94987.22;;;17.45;100.00
22047;BME280;11187;49.412;20.956;2022-07-30T05:33:23;94986.25;;;17.48;100.00
22047;BME280;11187;49.412;20.956;2022-07-30T05:36:20;94999.94;;;17.50;100.00
22047;BME280;11187;49.412;20.956;2022-07-30T05:38:54;95004.22;;;17.51;100.00
22047;BME280;11187;49.412;20.956;2022-07-30T05:41:40;95006.72;;;17.52;100.00
22047;BME280;11187;49.412;20.956;2022-07-30T05:44:14;95000.56;;;17.55;100.00
22047;BME280;11187;49.412;20.956;2022-07-30T05:47:07;95006.59;;;17.56;100.00
22047;BME280;11187;49.412;20.956;2022-07-30T05:50:01;95009.09;;;17.57;100.00
22047;BME280;11187;49.412;20.956;2022-07-30T05:52:35;95005.63;;;17.58;100.00
22047;BME280;11187;49.412;20.956;2022-07-30T05:55:21;95010.78;;;17.58;100.00
22047;BME280;11187;49.412;20.956;2022-07-30T05:58:00;95009.94;;;17.58;100.00
22047;BME280;11187;49.412;20.956;2022-07-30T06:00:47;95009.09;;;17.57;100.00
22047;BME280;11187;49.412;20.956;2022-07-30T06:03:21;95009.03;;;17.59;100.00
22047;BME280;11187;49.412;20.956;2022-07-30T06:06:07;95017.56;;;17.61;100.00
22047;BME280;11187;49.412;20.956;2022-07-30T06:08:48;95018.34;;;17.63;100.00
22047;BME280;11187;49.412;20.956;2022-07-30T06:11:41;95016.56;;;17.63;100.00
22047;BME280;11187;49.412;20.956;2022-07-30T06:14:15;95017.34;;;17.65;100.00
22047;BME280;11187;49.412;20.956;2022-07-30T06:17:08;95011.19;;;17.68;100.00
22047;BME280;11187;49.412;20.956;2022-07-30T06:20:02;95005.94;;;17.69;100.00
22047;BME280;11187;49.412;20.956;2022-07-30T06:22:56;95005.84;;;17.71;100.00
22047;BME280;11187;49.412;20.956;2022-07-30T06:25:30;95010.97;;;17.72;100.00
22047;BME280;11187;49.412;20.956;2022-07-30T06:28:18;95005.72;;;17.74;100.00
22047;BME280;11187;49.412;20.956;2022-07-30T06:31:07;95008.16;;;17.77;100.00
22047;BME280;11187;49.412;20.956;2022-07-30T06:34:01;95009.84;;;17.78;100.00
22047;BME280;11187;49.412;20.956;2022-07-30T06:36:55;95002.81;;;17.80;100.00
22047;BME280;11187;49.412;20.956;2022-07-30T06:39:29;95003.53;;;17.84;100.00
22047;BME280;11187;49.412;20.956;2022-07-30T06:42:36;95006.91;;;17.86;100.00
22047;BME280;11187;49.412;20.956;2022-07-30T06:45:10;94999.81;;;17.89;100.00
22047;BME280;11187;49.412;20.956;2022-07-30T06:47:57;95001.44;;;17.92;100.00
22047;BME280;11187;49.412;20.956;2022-07-30T06:50:31;94995.16;;;17.96;100.00
22047;BME280;11187;49.412;20.956;2022-07-30T06:53:24;94987.31;;;17.98;100.00
22047;BME280;11187;49.412;20.956;2022-07-30T06:56:21;94988.91;;;18.00;100.00
22047;BME280;11187;49.412;20.956;2022-07-30T06:58:55;94988.78;;;18.03;100.00
22047;BME280;11187;49.412;20.956;2022-07-30T07:01:41;94987.69;;;18.07;100.00
22047;BME280;11187;49.412;20.956;2022-07-30T07:04:15;94979.78;;;18.10;100.00
22047;BME280;11187;49.412;20.956;2022-07-30T07:07:08;94981.38;;;18.13;100.00
22047;BME280;11187;49.412;20.956;2022-07-30T07:10:20;94977.72;;;18.17;100.00
22047;BME280;11187;49.412;20.956;2022-07-30T07:12:54;94977.63;;;18.19;100.00
22047;BME280;11187;49.412;20.956;2022-07-30T07:15:47;94973.09;;;18.24;100.00
22047;BME280;11187;49.412;20.956;2022-07-30T07:18:41;94972.75;;;18.30;100.00
22047;BME280;11187;49.412;20.956;2022-07-30T07:21:35;94967.31;;;18.34;100.00
22047;BME280;11187;49.412;20.956;2022-07-30T07:24:09;94969.53;;;18.42;100.00
22047;BME280;11187;49.412;20.956;2022-07-30T07:26:55;94963.78;;;18.53;100.00
22047;BME280;11187;49.412;20.956;2022-07-30T07:29:29;94962.16;;;18.68;100.00
22047;BME280;11187;49.412;20.956;2022-07-30T07:32:16;94961.75;;;18.75;100.00
22047;BME280;11187;49.412;20.956;2022-07-30T07:34:50;94965.38;;;18.89;100.00
22047;BME280;11187;49.412;20.956;2022-07-30T07:37:36;94970.19;;;18.96;100.00
22047;BME280;11187;49.412;20.956;2022-07-30T07:40:10;94971.44;;;19.05;100.00
22047;BME280;11187;49.412;20.956;2022-07-30T07:43:04;94960.72;;;19.11;100.00
22047;BME280;11187;49.412;20.956;2022-07-30T07:45:38;94954.38;;;19.17;100.00
22047;BME280;11187;49.412;20.956;2022-07-30T07:48:24;94953.00;;;19.26;100.00
22047;BME280;11187;49.412;20.956;2022-07-30T07:50:58;94954.38;;;19.33;100.00
22047;BME280;11187;49.412;20.956;2022-07-30T07:53:52;94955.69;;;19.40;100.00
22047;BME280;11187;49.412;20.956;2022-07-30T07:57:00;94951.06;;;19.45;100.00
22047;BME280;11187;49.412;20.956;2022-07-30T07:59:36;94950.75;;;19.51;100.00
22047;BME280;11187;49.412;20.956;2022-07-30T08:02:22;94948.78;;;19.55;100.00
22047;BME280;11187;49.412;20.956;2022-07-30T08:04:56;94946.53;;;19.65;100.00
22047;BME280;11187;49.412;20.956;2022-07-30T08:07:43;94944.28;;;19.74;100.00
22047;BME280;11187;49.412;20.956;2022-07-30T08:10:17;94946.34;;;19.84;100.00
22047;BME280;11187;49.412;20.956;2022-07-30T08:13:10;94943.47;;;19.88;100.00
22047;BME280;11187;49.412;20.956;2022-07-30T08:16:24;94941.72;;;19.89;100.00
22047;BME280;11187;49.412;20.956;2022-07-30T08:18:58;94941.56;;;19.92;100.00
22047;BME280;11187;49.412;20.956;2022-07-30T08:21:44;94956.13;;;19.94;100.00
22047;BME280;11187;49.412;20.956;2022-07-30T08:24:18;94949.91;;;19.97;100.00
22047;BME280;11187;49.412;20.956;2022-07-30T08:27:04;94950.81;;;19.96;100.00
22047;BME280;11187;49.412;20.956;2022-07-30T08:29:38;94938.69;;;19.96;100.00
22047;BME280;11187;49.412;20.956;2022-07-30T08:32:24;94939.59;;;19.95;100.00
22047;BME280;11187;49.412;20.956;2022-07-30T08:34:58;94937.00;;;19.95;100.00
22047;BME280;11187;49.412;20.956;2022-07-30T08:37:51;94935.50;;;19.91;100.00
22047;BME280;11187;49.412;20.956;2022-07-30T08:40:45;94925.47;;;19.85;100.00
22047;BME280;11187;49.412;20.956;2022-07-30T08:43:19;94920.56;;;19.80;100.00
22047;BME280;11187;49.412;20.956;2022-07-30T08:46:08;94919.97;;;19.75;100.00
22047;BME280;11187;49.412;20.956;2022-07-30T08:48:44;94914.75;;;19.75;100.00
22047;BME280;11187;49.412;20.956;2022-07-30T08:51:48;94912.91;;;19.77;100.00
22047;BME280;11187;49.412;20.956;2022-07-30T08:54:42;94902.44;;;19.79;100.00
22047;BME280;11187;49.412;20.956;2022-07-30T08:57:16;94909.31;;;19.80;100.00
22047;BME280;11187;49.412;20.956;2022-07-30T09:00:05;94912.66;;;19.82;100.00
22047;BME280;11187;49.412;20.956;2022-07-30T09:02:38;94908.97;;;19.86;100.00
22047;BME280;11187;49.412;20.956;2022-07-30T09:05:31;94911.28;;;19.91;100.00
22047;BME280;11187;49.412;20.956;2022-07-30T09:08:05;94913.47;;;19.98;100.00
22047;BME280;11187;49.412;20.956;2022-07-30T09:10:58;94906.22;;;20.03;100.00
22047;BME280;11187;49.412;20.956;2022-07-30T09:13:37;94902.31;;;20.11;100.00
22047;BME280;11187;49.412;20.956;2022-07-30T09:16:25;94901.84;;;20.18;100.00
22047;BME280;11187;49.412;20.956;2022-07-30T09:19:11;94905.13;;;20.22;100.00
22047;BME280;11187;49.412;20.956;2022-07-30T09:22:04;94902.44;;;20.23;100.00
22047;BME280;11187;49.412;20.956;2022-07-30T09:24:42;94902.31;;;20.25;100.00
22047;BME280;11187;49.412;20.956;2022-07-30T09:27:47;94896.38;;;20.23;100.00
22047;BME280;11187;49.412;20.956;2022-07-30T09:30:21;94892.94;;;20.22;100.00
22047;BME280;11187;49.412;20.956;2022-07-30T09:33:30;94893.22;;;20.18;100.00
22047;BME280;11187;49.412;20.956;2022-07-30T09:36:08;94896.84;;;20.15;100.00
22047;BME280;11187;49.412;20.956;2022-07-30T09:39:02;94906.41;;;20.15;100.00
22047;BME280;11187;49.412;20.956;2022-07-30T09:41:56;94891.94;;;20.11;100.00
22047;BME280;11187;49.412;20.956;2022-07-30T09:44:30;94888.59;;;20.09;100.00
22047;BME280;11187;49.412;20.956;2022-07-30T09:47:32;94892.19;;;20.06;100.00
22047;BME280;11187;49.412;20.956;2022-07-30T09:53:09;94886.06;;;20.07;100.00
22047;BME280;11187;49.412;20.956;2022-07-30T09:56:23;94889.53;;;20.08;100.00
22047;BME280;11187;49.412;20.956;2022-07-30T09:58:57;94886.06;;;20.07;100.00
22047;BME280;11187;49.412;20.956;2022-07-30T10:01:58;94890.50;;;20.05;100.00
22047;BME280;11187;49.412;20.956;2022-07-30T10:04:52;94888.84;;;20.04;100.00
22047;BME280;11187;49.412;20.956;2022-07-30T10:07:26;94881.06;;;20.04;100.00
22047;BME280;11187;49.412;20.956;2022-07-30T10:10:28;94866.41;;;20.03;100.00
22047;BME280;11187;49.412;20.956;2022-07-30T10:13:13;94872.50;;;20.02;100.00
22047;BME280;11187;49.412;20.956;2022-07-30T10:16:00;94872.59;;;20.00;100.00
22047;BME280;11187;49.412;20.956;2022-07-30T10:18:33;94866.41;;;20.03;100.00
22047;BME280;11187;49.412;20.956;2022-07-30T10:21:20;94865.47;;;20.04;100.00
22047;BME280;11187;49.412;20.956;2022-07-30T10:23:58;94866.22;;;20.06;100.00
22047;BME280;11187;49.412;20.956;2022-07-30T10:26:52;94864.38;;;20.08;100.00
22047;BME280;11187;49.412;20.956;2022-07-30T10:29:47;94870.38;;;20.09;100.00
22047;BME280;11187;49.412;20.956;2022-07-30T10:32:20;94878.84;;;20.12;100.00
22047;BME280;11187;49.412;20.956;2022-07-30T10:35:11;94878.84;;;20.12;100.00
22047;BME280;11187;49.412;20.956;2022-07-30T10:38:08;94887.41;;;20.14;100.00
22047;BME280;11187;49.412;20.956;2022-07-30T10:41:24;94893.41;;;20.15;100.00
22047;BME280;11187;49.412;20.956;2022-07-30T10:47:09;94908.00;;;20.17;100.00
22047;BME280;11187;49.412;20.956;2022-07-30T10:50:20;94915.88;;;20.16;100.00
22047;BME280;11187;49.412;20.956;2022-07-30T10:53:07;94919.41;;;20.15;100.00
22047;BME280;11187;49.412;20.956;2022-07-30T10:55:41;94917.84;;;20.12;100.00
22047;BME280;11187;49.412;20.956;2022-07-30T10:59:01;94919.09;;;20.05;100.00
22047;BME280;11187;49.412;20.956;2022-07-30T11:04:32;94910.38;;;19.92;100.00
22047;BME280;11187;49.412;20.956;2022-07-30T11:07:27;94901.34;;;19.83;100.00
22047;BME280;11187;49.412;20.956;2022-07-30T11:10:37;94890.56;;;19.75;100.00
22047;BME280;11187;49.412;20.956;2022-07-30T11:13:11;94881.38;;;19.69;100.00
22047;BME280;11187;49.412;20.956;2022-07-30T11:16:03;94880.84;;;19.63;100.00
22047;BME280;11187;49.412;20.956;2022-07-30T11:22:27;94867.16;;;19.45;100.00
22047;BME280;11187;49.412;20.956;2022-07-30T11:28:42;94866.13;;;19.33;100.00
22047;BME280;11187;49.412;20.956;2022-07-30T11:34:32;94854.22;;;19.29;100.00
22047;BME280;11187;49.412;20.956;2022-07-30T11:37:12;94850.88;;;19.27;100.00
22047;BME280;11187;49.412;20.956;2022-07-30T11:42:44;94850.06;;;19.26;100.00
22047;BME280;11187;49.412;20.956;2022-07-30T11:45:19;94850.88;;;19.27;100.00
22047;BME280;11187;49.412;20.956;2022-07-30T11:48:14;94839.66;;;19.26;100.00
22047;BME280;11187;49.412;20.956;2022-07-30T11:50:48;94838.72;;;19.27;100.00
22047;BME280;11187;49.412;20.956;2022-07-30T11:53:42;94833.53;;;19.27;100.00
22047;BME280;11187;49.412;20.956;2022-07-30T11:56:50;94835.31;;;19.27;100.00
22047;BME280;11187;49.412;20.956;2022-07-30T11:59:29;94835.22;;;19.28;100.00
22047;BME280;11187;49.412;20.956;2022-07-30T12:02:28;94832.53;;;19.30;100.00
22047;BME280;11187;49.412;20.956;2022-07-30T12:05:26;94832.44;;;19.31;100.00
22047;BME280;11187;49.412;20.956;2022-07-30T12:08:20;94821.97;;;19.33;100.00
22047;BME280;11187;49.412;20.956;2022-07-30T12:11:14;94820.03;;;19.36;100.00
22047;BME280;11187;49.412;20.956;2022-07-30T12:13:58;94824.22;;;19.39;100.00
22047;BME280;11187;49.412;20.956;2022-07-30T12:16:53;94825.78;;;19.41;100.00
22047;BME280;11187;49.412;20.956;2022-07-30T12:19:54;94811.91;;;19.43;100.00
22047;BME280;11187;49.412;20.956;2022-07-30T12:22:48;94797.81;;;19.47;100.00
22047;BME280;11187;49.412;20.956;2022-07-30T12:25:22;94793.25;;;19.50;100.00
22047;BME280;11187;49.412;20.956;2022-07-30T12:28:09;94786.88;;;19.56;100.00
22047;BME280;11187;49.412;20.956;2022-07-30T12:30:43;94780.47;;;19.61;100.00
22047;BME280;11187;49.412;20.956;2022-07-30T12:33:30;94778.63;;;19.64;100.00
22047;BME280;11187;49.412;20.956;2022-07-30T12:36:07;94771.50;;;19.67;100.00
22047;BME280;11187;49.412;20.956;2022-07-30T12:39:03;94770.44;;;19.71;100.00
22047;BME280;11187;49.412;20.956;2022-07-30T12:41:57;94761.72;;;19.72;100.00
22047;BME280;11187;49.412;20.956;2022-07-30T12:44:41;94764.09;;;19.75;100.00
22047;BME280;11187;49.412;20.956;2022-07-30T12:47:35;94754.47;;;19.77;100.00
22047;BME280;11187;49.412;20.956;2022-07-30T12:50:29;94744.81;;;19.79;100.00
22047;BME280;11187;49.412;20.956;2022-07-30T12:53:28;94732.50;;;19.83;100.00
22047;BME280;11187;49.412;20.956;2022-07-30T12:56:12;94731.47;;;19.86;100.00
22047;BME280;11187;49.412;20.956;2022-07-30T12:59:19;94731.28;;;19.89;100.00
22047;BME280;11187;49.412;20.956;2022-07-30T13:02:29;94732.75;;;19.93;100.00
22047;BME280;11187;49.412;20.956;2022-07-30T13:05:03;94725.63;;;19.96;100.00
22047;BME280;11187;49.412;20.956;2022-07-30T13:07:55;94720.97;;;20.01;100.00
22047;BME280;11187;49.412;20.956;2022-07-30T13:10:29;94721.72;;;20.03;100.00
22047;BME280;11187;49.412;20.956;2022-07-30T13:13:15;94714.66;;;20.06;100.00
22047;BME280;11187;49.412;20.956;2022-07-30T13:16:00;94724.84;;;20.09;100.00
22047;BME280;11187;49.412;20.956;2022-07-30T13:18:47;94713.44;;;20.11;100.00
22047;BME280;11187;49.412;20.956;2022-07-30T13:21:21;94714.09;;;20.15;100.00
22047;BME280;11187;49.412;20.956;2022-07-30T13:24:08;94714.81;;;20.17;100.00
22047;BME280;11187;49.412;20.956;2022-07-30T13:26:44;94712.84;;;20.20;100.00
22047;BME280;11187;49.412;20.956;2022-07-30T13:29:37;94707.56;;;20.22;100.00
22047;BME280;11187;49.412;20.956;2022-07-30T13:32:31;94699.69;;;20.23;100.00
22047;BME280;11187;49.412;20.956;2022-07-30T13:35:05;94706.34;;;20.28;100.00
22047;BME280;11187;49.412;20.956;2022-07-30T13:37:59;94711.25;;;20.32;100.00
22047;BME280;11187;49.412;20.956;2022-07-30T13:40:35;94708.47;;;20.35;100.00
22047;BME280;11187;49.412;20.956;2022-07-30T13:43:29;94706.69;;;20.36;100.00
22047;BME280;11187;49.412;20.956;2022-07-30T13:46:04;94697.84;;;20.38;100.00
22047;BME280;11187;49.412;20.956;2022-07-30T13:48:50;94697.78;;;20.40;100.00
22047;BME280;11187;49.412;20.956;2022-07-30T13:51:24;94700.09;;;20.44;100.00
22047;BME280;11187;49.412;20.956;2022-07-30T13:54:10;94698.09;;;20.48;100.00
22047;BME280;11187;49.412;20.956;2022-07-30T13:56:44;94691.59;;;20.55;100.00
22047;BME280;11187;49.412;20.956;2022-07-30T13:59:30;94684.25;;;20.62;100.00
22047;BME280;11187;49.412;20.956;2022-07-30T14:02:04;94682.19;;;20.67;100.00
22047;BME280;11187;49.412;20.956;2022-07-30T14:04:50;94683.66;;;20.71;100.00
22047;BME280;11187;49.412;20.956;2022-07-30T14:07:24;94683.38;;;20.76;100.00
22047;BME280;11187;49.412;20.956;2022-07-30T14:10:10;94667.63;;;20.77;100.00
22047;BME280;11187;49.412;20.956;2022-07-30T14:12:44;94667.53;;;20.79;100.00
22047;BME280;11187;49.412;20.956;2022-07-30T14:15:33;94665.84;;;20.78;100.00
22047;BME280;11187;49.412;20.956;2022-07-30T14:18:07;94663.25;;;20.78;100.00
22047;BME280;11187;49.412;20.956;2022-07-30T14:20:53;94656.41;;;20.77;100.00
22047;BME280;11187;49.412;20.956;2022-07-30T14:23:27;94663.91;;;20.81;100.00
22047;BME280;11187;49.412;20.956;2022-07-30T14:26:14;94665.47;;;20.84;100.00
22047;BME280;11187;49.412;20.956;2022-07-30T14:29:00;94664.56;;;20.85;100.00
22047;BME280;11187;49.412;20.956;2022-07-30T14:31:55;94669.75;;;20.85;100.00
22047;BME280;11187;49.412;20.956;2022-07-30T14:34:49;94663.50;;;20.88;100.00
22047;BME280;11187;49.412;20.956;2022-07-30T14:37:42;94660.69;;;20.91;100.00
22047;BME280;11187;49.412;20.956;2022-07-30T14:40:36;94658.91;;;20.91;100.00